createdAt,value
2018-04-18T00:01:19.032Z,8.00
2018-04-18T00:03:52.780Z,8.00
2018-04-18T00:06:26.559Z,7.70
2018-04-18T00:09:00.284Z,7.60
2018-04-18T00:11:34.067Z,7.60
2018-04-18T00:14:07.806Z,7.50
2018-04-18T00:16:41.426Z,7.50
2018-04-18T00:19:15.933Z,7.60
2018-04-18T00:21:49.618Z,7.50
2018-04-18T00:24:23.474Z,7.60
2018-04-18T00:26:57.291Z,7.60
2018-04-18T00:29:30.976Z,7.60
2018-04-18T00:32:04.766Z,7.60
2018-04-18T00:34:38.524Z,7.50
2018-04-18T00:37:12.320Z,7.40
2018-04-18T00:39:46.046Z,7.40
2018-04-18T00:42:19.857Z,7.50
2018-04-18T00:44:53.490Z,7.40
2018-04-18T00:47:27.296Z,7.20
2018-04-18T00:50:01.062Z,7.10
2018-04-18T00:52:34.779Z,7.00
2018-04-18T00:55:08.561Z,7.00
2018-04-18T00:57:42.203Z,7.00
2018-04-18T01:00:15.976Z,7.10
2018-04-18T01:02:49.949Z,7.10
2018-04-18T01:05:23.760Z,7.10
2018-04-18T01:07:58.341Z,6.80
2018-04-18T01:10:32.125Z,6.80
2018-04-18T01:13:06.772Z,6.80
2018-04-18T01:15:40.370Z,6.80
2018-04-18T01:18:14.209Z,6.90
2018-04-18T01:20:48.115Z,6.80
2018-04-18T01:23:22.705Z,6.80
2018-04-18T01:25:56.664Z,6.80
2018-04-18T01:28:30.468Z,6.70
2018-04-18T01:31:04.288Z,6.70
2018-04-18T01:33:37.996Z,6.60
2018-04-18T01:36:11.870Z,6.70
2018-04-18T01:38:45.658Z,6.60
2018-04-18T01:41:19.411Z,6.50
2018-04-18T01:43:53.248Z,6.40
2018-04-18T01:46:27.066Z,6.40
2018-04-18T01:49:12.637Z,6.40
2018-04-18T01:51:47.143Z,6.30
2018-04-18T01:54:21.670Z,6.30
2018-04-18T01:56:55.380Z,6.20
2018-04-18T01:59:29.201Z,6.20
2018-04-18T02:02:02.869Z,6.10
2018-04-18T02:04:36.580Z,6.10
2018-04-18T02:07:10.292Z,6.10
2018-04-18T02:09:44.095Z,6.10
2018-04-18T02:12:18.723Z,6.10
2018-04-18T02:14:52.488Z,6.10
2018-04-18T02:17:27.054Z,6.10
2018-04-18T02:20:01.583Z,6.10
2018-04-18T02:22:35.343Z,6.10
2018-04-18T02:25:09.105Z,6.10
2018-04-18T02:27:43.500Z,6.00
2018-04-18T02:30:17.353Z,6.00
2018-04-18T02:32:51.942Z,5.90
2018-04-18T02:35:25.733Z,5.80
2018-04-18T02:37:59.329Z,5.90
2018-04-18T02:40:33.860Z,5.90
2018-04-18T02:43:07.536Z,5.90
2018-04-18T02:45:41.291Z,6.00
2018-04-18T02:48:14.958Z,5.90
2018-04-18T02:50:48.707Z,5.80
2018-04-18T02:53:23.202Z,5.60
2018-04-18T02:55:56.944Z,5.50
2018-04-18T02:58:30.707Z,5.50
2018-04-18T03:01:04.457Z,5.50
2018-04-18T03:03:39.158Z,5.40
2018-04-18T03:06:12.989Z,5.40
2018-04-18T03:08:47.566Z,5.30
2018-04-18T03:11:21.978Z,5.30
2018-04-18T03:13:55.854Z,5.30
2018-04-18T03:16:29.578Z,5.40
2018-04-18T03:19:03.360Z,5.30
2018-04-18T03:21:36.888Z,5.40
2018-04-18T03:24:10.530Z,5.30
2018-04-18T03:26:45.140Z,5.40
2018-04-18T03:29:18.921Z,5.40
2018-04-18T03:31:52.695Z,5.40
2018-04-18T03:34:26.416Z,5.20
2018-04-18T03:37:00.197Z,5.10
2018-04-18T03:39:33.875Z,5.10
2018-04-18T03:42:07.691Z,5.10
2018-04-18T03:44:41.464Z,5.10
2018-04-18T03:47:15.310Z,5.00
2018-04-18T03:49:49.210Z,5.10
2018-04-18T03:52:23.009Z,5.10
2018-04-18T03:54:56.817Z,5.10
2018-04-18T03:57:31.307Z,4.80
2018-04-18T04:00:05.012Z,4.80
2018-04-18T04:02:38.883Z,4.80
2018-04-18T04:05:12.614Z,4.80
2018-04-18T04:07:46.340Z,4.80
2018-04-18T04:10:20.112Z,4.80
2018-04-18T04:12:53.874Z,4.70
2018-04-18T04:15:27.636Z,4.80
2018-04-18T04:18:13.497Z,4.80
2018-04-18T04:20:59.244Z,4.80
2018-04-18T04:23:45.927Z,4.60
2018-04-18T04:26:19.723Z,4.60
2018-04-18T04:28:53.569Z,4.60
2018-04-18T04:31:27.312Z,4.60
2018-04-18T04:34:01.231Z,4.50
2018-04-18T04:36:34.826Z,4.60
2018-04-18T04:39:08.751Z,4.60
2018-04-18T04:41:42.530Z,4.60
2018-04-18T04:44:16.275Z,4.50
2018-04-18T04:46:50.758Z,4.60
2018-04-18T04:49:25.309Z,4.50
2018-04-18T04:51:59.052Z,4.50
2018-04-18T04:54:33.432Z,4.60
2018-04-18T04:57:07.123Z,4.60
2018-04-18T04:59:40.980Z,4.60
2018-04-18T05:02:14.705Z,4.60
2018-04-18T05:04:48.480Z,4.60
2018-04-18T05:07:23.092Z,4.80
2018-04-18T05:09:56.935Z,4.80
2018-04-18T05:12:30.659Z,4.90
2018-04-18T05:15:04.564Z,4.90
2018-04-18T05:17:38.290Z,5.00
2018-04-18T05:20:12.028Z,5.00
2018-04-18T05:22:45.835Z,5.00
2018-04-18T05:25:19.642Z,5.10
2018-04-18T05:27:54.219Z,5.30
2018-04-18T05:30:28.011Z,5.30
2018-04-18T05:33:01.831Z,5.50
2018-04-18T05:35:35.591Z,5.50
2018-04-18T05:38:09.359Z,5.60
2018-04-18T05:40:43.131Z,5.70
2018-04-18T05:43:16.841Z,5.90
2018-04-18T05:45:50.640Z,6.10
2018-04-18T05:48:24.372Z,6.20
2018-04-18T05:50:58.262Z,6.20
2018-04-18T05:53:32.816Z,6.50
2018-04-18T05:56:07.319Z,6.60
2018-04-18T05:58:41.111Z,6.60
2018-04-18T06:01:15.672Z,7.00
2018-04-18T06:03:49.410Z,6.90
2018-04-18T06:06:23.227Z,7.20
2018-04-18T06:08:57.674Z,7.60
2018-04-18T06:11:31.418Z,7.60
2018-04-18T06:14:05.217Z,7.80
2018-04-18T06:16:39.003Z,8.00
2018-04-18T06:19:12.813Z,8.20
2018-04-18T06:21:47.254Z,8.50
2018-04-18T06:24:20.950Z,8.50
2018-04-18T06:26:55.552Z,8.80
2018-04-18T06:29:29.275Z,8.80
2018-04-18T06:32:03.060Z,9.00
2018-04-18T06:34:37.563Z,9.20
2018-04-18T06:37:11.300Z,9.20
2018-04-18T06:39:44.995Z,9.40
2018-04-18T06:42:18.771Z,9.50
2018-04-18T06:44:52.581Z,9.70
2018-04-18T06:47:26.329Z,9.80
2018-04-18T06:50:00.128Z,10.00
2018-04-18T06:52:33.966Z,10.20
2018-04-18T06:55:08.524Z,10.50
2018-04-18T06:57:42.344Z,10.50
2018-04-18T07:00:16.064Z,10.60
2018-04-18T07:02:49.892Z,10.70
2018-04-18T07:05:24.480Z,11.00
2018-04-18T07:07:58.249Z,11.00
2018-04-18T07:10:32.118Z,11.10
2018-04-18T07:13:05.862Z,11.30
2018-04-18T07:15:39.608Z,11.40
2018-04-18T07:18:13.436Z,11.50
2018-04-18T07:20:47.207Z,11.70
2018-04-18T07:23:20.944Z,11.90
2018-04-18T07:25:54.735Z,12.10
2018-04-18T07:28:28.514Z,12.20
2018-04-18T07:31:02.335Z,12.40
2018-04-18T07:33:36.065Z,12.50
2018-04-18T07:36:09.713Z,12.50
2018-04-18T07:38:43.544Z,12.60
2018-04-18T07:41:17.268Z,12.80
2018-04-18T07:43:51.103Z,13.00
2018-04-18T07:46:24.859Z,13.10
2018-04-18T07:48:58.634Z,13.20
2018-04-18T07:51:32.487Z,13.40
2018-04-18T07:54:06.344Z,13.60
2018-04-18T07:56:40.894Z,13.80
2018-04-18T07:59:14.677Z,13.80
2018-04-18T08:01:48.421Z,14.10
2018-04-18T08:04:23.056Z,14.40
2018-04-18T08:06:56.775Z,14.40
2018-04-18T08:09:30.430Z,14.50
2018-04-18T08:12:04.178Z,14.60
2018-04-18T08:14:38.837Z,14.80
2018-04-18T08:17:12.636Z,14.70
2018-04-18T08:19:46.407Z,14.90
2018-04-18T08:22:20.312Z,15.10
2018-04-18T08:24:54.067Z,15.30
2018-04-18T08:27:27.783Z,15.50
2018-04-18T08:30:02.426Z,16.00
2018-04-18T08:32:36.206Z,16.00
2018-04-18T08:35:09.845Z,16.20
2018-04-18T08:37:43.700Z,16.30
2018-04-18T08:40:17.421Z,16.50
2018-04-18T08:42:51.293Z,16.70
2018-04-18T08:45:25.038Z,16.80
2018-04-18T08:47:58.885Z,17.00
2018-04-18T08:50:33.493Z,17.20
2018-04-18T08:53:07.309Z,17.20
2018-04-18T08:55:41.090Z,17.40
2018-04-18T08:58:14.879Z,17.50
2018-04-18T09:00:49.478Z,17.80
2018-04-18T09:03:24.043Z,17.90
2018-04-18T09:05:57.848Z,17.90
2018-04-18T09:08:32.369Z,18.10
2018-04-18T09:11:06.988Z,18.10
2018-04-18T09:13:40.759Z,18.10
2018-04-18T09:16:15.397Z,18.30
2018-04-18T09:18:49.187Z,18.30
2018-04-18T09:21:23.009Z,18.40
2018-04-18T09:23:56.886Z,18.60
2018-04-18T09:26:30.661Z,18.70
2018-04-18T09:29:04.486Z,18.80
2018-04-18T09:31:38.274Z,19.00
2018-04-18T09:34:12.028Z,19.10
2018-04-18T09:36:45.839Z,19.20
2018-04-18T09:39:19.603Z,19.30
2018-04-18T09:41:54.198Z,19.30
2018-04-18T09:44:28.650Z,19.30
2018-04-18T09:47:02.506Z,19.30
2018-04-18T09:49:36.381Z,19.20
2018-04-18T09:52:10.045Z,19.10
2018-04-18T09:54:43.821Z,19.20
2018-04-18T09:57:17.531Z,19.40
2018-04-18T09:59:51.324Z,19.40
2018-04-18T10:02:29.137Z,19.50
2018-04-18T10:05:07.441Z,19.60
2018-04-18T10:07:41.178Z,19.70
2018-04-18T10:10:15.824Z,20.00
2018-04-18T10:12:49.546Z,20.00
2018-04-18T10:15:24.112Z,19.80
2018-04-18T10:17:57.737Z,19.80
2018-04-18T10:20:31.531Z,19.90
2018-04-18T10:23:05.245Z,19.90
2018-04-18T10:25:38.985Z,20.00
2018-04-18T10:28:13.543Z,19.90
2018-04-18T10:30:48.056Z,20.00
2018-04-18T10:33:21.765Z,20.00
2018-04-18T10:35:55.415Z,20.10
2018-04-18T10:38:29.190Z,20.10
2018-04-18T10:41:02.924Z,20.10
2018-04-18T10:43:37.495Z,20.20
2018-04-18T10:46:11.152Z,20.20
2018-04-18T10:48:45.741Z,20.60
2018-04-18T10:51:19.536Z,20.60
2018-04-18T10:53:53.262Z,20.70
2018-04-18T10:56:27.833Z,20.50
2018-04-18T10:59:02.285Z,20.50
2018-04-18T11:01:36.058Z,20.50
2018-04-18T11:04:13.475Z,20.40
2018-04-18T11:06:47.994Z,20.70
2018-04-18T11:09:21.812Z,20.60
2018-04-18T11:11:56.344Z,20.60
2018-04-18T11:14:30.153Z,20.50
2018-04-18T11:17:03.959Z,20.70
2018-04-18T11:19:38.553Z,21.10
2018-04-18T11:22:13.065Z,21.00
2018-04-18T11:24:46.679Z,21.00
2018-04-18T11:27:20.486Z,21.10
2018-04-18T11:29:54.218Z,21.10
2018-04-18T11:32:28.009Z,21.10
2018-04-18T11:35:02.427Z,21.00
2018-04-18T11:37:36.196Z,21.00
2018-04-18T11:40:09.835Z,21.00
2018-04-18T11:42:43.688Z,20.90
2018-04-18T11:45:17.573Z,21.00
2018-04-18T11:47:54.835Z,21.00
2018-04-18T11:50:28.726Z,21.20
2018-04-18T11:53:02.409Z,21.20
2018-04-18T11:55:36.179Z,21.10
2018-04-18T11:58:10.003Z,20.90
2018-04-18T12:00:43.788Z,21.00
2018-04-18T12:03:18.468Z,21.10
2018-04-18T12:05:52.291Z,21.00
2018-04-18T12:08:26.839Z,20.90
2018-04-18T12:11:00.614Z,20.90
2018-04-18T12:13:34.418Z,20.90
2018-04-18T12:16:08.042Z,20.90
2018-04-18T12:18:41.852Z,20.90
2018-04-18T12:21:16.444Z,21.10
2018-04-18T12:23:50.968Z,21.20
2018-04-18T12:26:24.634Z,21.20
2018-04-18T12:28:58.361Z,21.20
2018-04-18T12:31:32.248Z,21.10
2018-04-18T12:34:05.989Z,21.20
2018-04-18T12:36:39.685Z,21.10
2018-04-18T12:39:13.337Z,21.10
2018-04-18T12:41:47.805Z,21.20
2018-04-18T12:44:21.490Z,21.20
2018-04-18T12:46:55.309Z,21.20
2018-04-18T12:49:29.179Z,21.40
2018-04-18T12:52:03.641Z,21.30
2018-04-18T12:54:37.379Z,21.20
2018-04-18T12:57:11.194Z,21.40
2018-04-18T12:59:45.762Z,21.50
2018-04-18T13:02:19.537Z,21.50
2018-04-18T13:04:53.183Z,21.50
2018-04-18T13:07:26.795Z,21.60
2018-04-18T13:10:00.617Z,21.50
2018-04-18T13:12:34.303Z,21.50
2018-04-18T13:15:08.115Z,21.60
2018-04-18T13:17:42.704Z,21.70
2018-04-18T13:20:16.492Z,21.70
2018-04-18T13:22:51.073Z,21.90
2018-04-18T13:25:25.619Z,22.00
2018-04-18T13:27:59.604Z,21.90
2018-04-18T13:30:33.469Z,22.10
2018-04-18T13:33:07.239Z,22.10
2018-04-18T13:35:41.804Z,22.00
2018-04-18T13:38:15.579Z,22.00
2018-04-18T13:40:49.374Z,22.00
2018-04-18T13:43:23.103Z,22.10
2018-04-18T13:45:56.915Z,22.20
2018-04-18T13:48:30.757Z,21.80
2018-04-18T13:51:04.570Z,21.70
2018-04-18T13:53:38.405Z,21.80
2018-04-18T13:56:13.070Z,21.80
2018-04-18T13:58:46.892Z,21.80
2018-04-18T14:01:21.410Z,21.70
2018-04-18T14:03:55.177Z,21.70
2018-04-18T14:06:28.856Z,21.70
2018-04-18T14:09:03.446Z,21.70
2018-04-18T14:11:37.127Z,21.60
2018-04-18T14:14:11.484Z,21.30
2018-04-18T14:16:45.258Z,21.30
2018-04-18T14:19:19.052Z,20.90
2018-04-18T14:21:52.720Z,20.90
2018-04-18T14:24:27.194Z,20.90
2018-04-18T14:27:00.906Z,20.90
2018-04-18T14:29:35.443Z,20.80
2018-04-18T14:32:09.191Z,20.80
2018-04-18T14:34:42.853Z,20.60
2018-04-18T14:37:16.509Z,20.60
2018-04-18T14:39:50.291Z,20.70
2018-04-18T14:42:24.061Z,20.90
2018-04-18T14:44:57.692Z,21.00
2018-04-18T14:47:32.171Z,21.20
2018-04-18T14:50:05.892Z,21.20
2018-04-18T14:52:39.687Z,21.20
2018-04-18T14:55:14.324Z,20.80
2018-04-18T14:57:48.835Z,20.80
2018-04-18T15:00:22.540Z,20.70
2018-04-18T15:02:57.037Z,20.70
2018-04-18T15:05:30.735Z,20.70
2018-04-18T15:08:04.503Z,20.70
2018-04-18T15:10:38.861Z,20.70
2018-04-18T15:13:12.849Z,20.70
2018-04-18T15:15:46.498Z,20.50
2018-04-18T15:18:20.279Z,20.40
2018-04-18T15:20:54.812Z,20.50
2018-04-18T15:23:29.365Z,20.40
2018-04-18T15:26:03.954Z,20.40
2018-04-18T15:28:37.670Z,20.30
2018-04-18T15:31:11.345Z,20.40
2018-04-18T15:33:45.278Z,20.30
2018-04-18T15:36:19.601Z,20.50
2018-04-18T15:38:53.439Z,20.50
2018-04-18T15:41:27.188Z,20.60
2018-04-18T15:44:01.006Z,20.50
2018-04-18T15:46:34.733Z,20.50
2018-04-18T15:49:08.533Z,20.60
2018-04-18T15:51:42.309Z,20.70
2018-04-18T15:54:16.839Z,20.60
2018-04-18T15:56:51.374Z,20.50
2018-04-18T15:59:25.141Z,20.50
2018-04-18T16:01:58.749Z,20.60
2018-04-18T16:04:33.140Z,20.60
2018-04-18T16:07:06.944Z,20.60
2018-04-18T16:09:40.798Z,20.50
2018-04-18T16:12:14.519Z,20.40
2018-04-18T16:14:49.130Z,20.40
2018-04-18T16:17:23.630Z,20.40
2018-04-18T16:19:57.400Z,20.40
2018-04-18T16:22:31.897Z,20.50
2018-04-18T16:25:05.611Z,20.50
2018-04-18T16:27:39.279Z,20.40
2018-04-18T16:30:24.960Z,20.60
2018-04-18T16:33:01.518Z,20.60
2018-04-18T16:35:36.981Z,20.60
2018-04-18T16:38:10.635Z,20.90
2018-04-18T16:40:45.324Z,20.90
2018-04-18T16:43:18.928Z,20.70
2018-04-18T16:45:52.695Z,21.00
2018-04-18T16:48:26.268Z,21.10
2018-04-18T16:51:00.750Z,21.10
2018-04-18T16:53:34.427Z,21.10
2018-04-18T16:56:08.146Z,21.40
2018-04-18T16:58:41.844Z,21.70
2018-04-18T17:01:15.636Z,22.00
2018-04-18T17:03:49.359Z,22.30
2018-04-18T17:06:23.027Z,22.50
2018-04-18T17:08:56.644Z,23.30
2018-04-18T17:11:31.163Z,23.10
2018-04-18T17:14:04.763Z,23.00
2018-04-18T17:16:38.609Z,23.40
2018-04-18T17:19:12.439Z,23.90
2018-04-18T17:21:46.246Z,24.00
2018-04-18T17:24:20.811Z,24.30
2018-04-18T17:26:54.530Z,24.30
2018-04-18T17:29:28.147Z,24.40
2018-04-18T17:32:01.892Z,24.30
2018-04-18T17:34:35.741Z,23.90
2018-04-18T17:37:10.251Z,23.80
2018-04-18T17:39:44.081Z,23.80
2018-04-18T17:42:18.646Z,23.70
2018-04-18T17:44:53.103Z,23.30
2018-04-18T17:47:26.745Z,23.30
2018-04-18T17:50:00.323Z,22.60
2018-04-18T17:52:34.049Z,22.00
2018-04-18T17:55:07.700Z,21.50
2018-04-18T17:57:41.428Z,20.80
2018-04-18T18:00:15.206Z,20.60
2018-04-18T18:02:48.892Z,20.50
2018-04-18T18:05:22.546Z,20.40
2018-04-18T18:07:56.856Z,20.40
2018-04-18T18:10:30.548Z,20.30
2018-04-18T18:13:05.078Z,20.00
2018-04-18T18:15:38.880Z,20.00
2018-04-18T18:18:13.402Z,19.70
2018-04-18T18:20:47.148Z,19.70
2018-04-18T18:23:20.931Z,19.60
2018-04-18T18:25:54.600Z,19.40
2018-04-18T18:28:28.428Z,19.40
2018-04-18T18:31:02.145Z,19.30
2018-04-18T18:33:35.844Z,19.20
2018-04-18T18:36:10.252Z,19.00
2018-04-18T18:38:44.761Z,18.90
2018-04-18T18:41:19.186Z,18.80
2018-04-18T18:43:53.033Z,18.80
2018-04-18T18:46:26.718Z,18.70
2018-04-18T18:49:00.478Z,18.50
2018-04-18T18:51:34.303Z,18.50
2018-04-18T18:54:08.039Z,18.30
2018-04-18T18:56:41.800Z,18.20
2018-04-18T18:59:16.388Z,18.10
2018-04-18T19:01:49.935Z,18.00
2018-04-18T19:04:23.563Z,18.00
2018-04-18T19:06:57.324Z,17.90
2018-04-18T19:09:31.074Z,17.90
2018-04-18T19:12:04.831Z,17.90
2018-04-18T19:14:38.477Z,17.80
2018-04-18T19:17:12.020Z,17.70
2018-04-18T19:19:45.607Z,17.60
2018-04-18T19:22:19.270Z,17.50
2018-04-18T19:24:52.913Z,17.40
2018-04-18T19:27:26.497Z,17.30
2018-04-18T19:30:00.773Z,17.10
2018-04-18T19:32:34.399Z,17.10
2018-04-18T19:35:08.055Z,17.10
2018-04-18T19:37:41.612Z,17.00
2018-04-18T19:40:15.206Z,16.90
2018-04-18T19:42:48.836Z,16.80
2018-04-18T19:45:23.301Z,16.70
2018-04-18T19:47:56.827Z,16.70
2018-04-18T19:50:31.158Z,16.60
2018-04-18T19:53:04.899Z,16.60
2018-04-18T19:55:38.582Z,16.60
2018-04-18T19:58:12.094Z,16.50
2018-04-18T20:00:45.680Z,16.60
2018-04-18T20:03:19.253Z,16.50
2018-04-18T20:05:52.970Z,16.50
2018-04-18T20:08:26.584Z,16.50
2018-04-18T20:11:00.199Z,16.40
2018-04-18T20:13:33.702Z,16.40
2018-04-18T20:16:07.264Z,16.30
2018-04-18T20:18:40.852Z,16.30
2018-04-18T20:21:14.388Z,16.10
2018-04-18T20:23:47.961Z,16.00
2018-04-18T20:26:21.534Z,15.80
2018-04-18T20:28:55.172Z,15.70
2018-04-18T20:31:28.768Z,15.50
2018-04-18T20:34:02.362Z,15.40
2018-04-18T20:36:37.698Z,15.30
2018-04-18T20:39:11.412Z,15.20
2018-04-18T20:41:53.793Z,15.00
2018-04-18T20:44:27.518Z,14.80
2018-04-18T20:47:01.096Z,14.60
2018-04-18T20:49:35.462Z,14.20
2018-04-18T20:52:09.189Z,14.20
2018-04-18T20:54:43.660Z,13.90
2018-04-18T20:57:17.359Z,13.80
2018-04-18T20:59:50.940Z,13.80
2018-04-18T21:02:25.492Z,13.70
2018-04-18T21:04:59.176Z,13.70
2018-04-18T21:07:32.826Z,13.60
2018-04-18T21:10:06.394Z,13.60
2018-04-18T21:12:39.939Z,13.40
2018-04-18T21:15:13.507Z,13.30
2018-04-18T21:17:47.056Z,13.20
2018-04-18T21:20:20.693Z,13.10
2018-04-18T21:22:54.306Z,13.20
2018-04-18T21:25:27.864Z,13.00
2018-04-18T21:28:01.495Z,12.70
2018-04-18T21:30:35.102Z,12.80
2018-04-18T21:33:08.710Z,12.70
2018-04-18T21:35:42.180Z,12.70
2018-04-18T21:38:15.704Z,12.70
2018-04-18T21:40:49.403Z,12.70
2018-04-18T21:43:23.023Z,12.60
2018-04-18T21:45:56.613Z,12.40
2018-04-18T21:48:30.327Z,12.40
2018-04-18T21:51:04.054Z,12.30
2018-04-18T21:53:38.429Z,12.30
2018-04-18T21:56:12.938Z,12.10
2018-04-18T21:58:46.673Z,12.10
2018-04-18T22:01:21.073Z,12.00
2018-04-18T22:03:54.745Z,12.00
2018-04-18T22:06:29.090Z,11.90
2018-04-18T22:09:02.608Z,11.90
2018-04-18T22:11:36.190Z,11.90
2018-04-18T22:14:10.513Z,11.90
2018-04-18T22:16:44.240Z,11.90
2018-04-18T22:19:18.528Z,11.60
2018-04-18T22:21:52.214Z,11.60
2018-04-18T22:24:25.762Z,11.50
2018-04-18T22:26:59.455Z,11.40
2018-04-18T22:29:32.998Z,11.30
2018-04-18T22:32:06.573Z,11.20
2018-04-18T22:34:40.152Z,11.20
2018-04-18T22:37:13.711Z,11.20
2018-04-18T22:39:47.264Z,11.20
2018-04-18T22:42:20.860Z,11.20
2018-04-18T22:44:54.415Z,11.10
2018-04-18T22:47:27.974Z,11.00
2018-04-18T22:50:01.514Z,11.00
2018-04-18T22:52:35.137Z,11.00
2018-04-18T22:55:08.664Z,11.00
2018-04-18T22:57:42.235Z,11.10
2018-04-18T23:00:28.479Z,11.10
2018-04-18T23:03:02.032Z,11.00
2018-04-18T23:05:35.604Z,11.00
2018-04-18T23:08:09.230Z,10.80
2018-04-18T23:10:42.958Z,10.70
2018-04-18T23:13:17.268Z,10.50
2018-04-18T23:15:50.956Z,10.50
2018-04-18T23:18:24.519Z,10.50
2018-04-18T23:20:58.060Z,10.40
2018-04-18T23:23:31.652Z,10.20
2018-04-18T23:26:05.392Z,10.20
2018-04-18T23:28:38.941Z,10.20
2018-04-18T23:31:13.363Z,10.00
2018-04-18T23:33:46.965Z,10.00
2018-04-18T23:36:21.316Z,9.90
2018-04-18T23:38:55.709Z,9.90
2018-04-18T23:41:29.404Z,9.90
2018-04-18T23:44:03.723Z,9.80
2018-04-18T23:46:42.375Z,9.80
2018-04-18T23:49:16.069Z,9.70
2018-04-18T23:51:49.664Z,9.60
2018-04-18T23:54:23.252Z,9.40
2018-04-18T23:56:57.180Z,9.30
2018-04-18T23:59:31.672Z,9.30
